Baltimore, Maryland
Traffic Map
Current Weather Conditions
Baltimore, Maryland
Scattered Clouds
Scattered Clouds
15°
Feels Like: 15°
Wind Chill: 15° Ceiling: Unl
Heat Index: 15° Visibility: 10mi
Dew Point: Wind: 20mph
Humidity: 53% Direction: 310° (NW)
Pressure: 29.95in Gusts: 28mph
Raw Report DataKBWI 241354Z 31017G24KT 10SM FEW160 SCT250 15/06 A2995 RMK AO2 SLP141 T01500056
Traffic Incident Summary
Active as of:
Severity:
Category:
InformationThere was an issue retrieving the traffic information for this location. Please try a different location or try again shortly.
Advertisements
Track Severe Weather on mobile